createdAt,value
2019-03-03T00:01:46.417Z,1.28
2019-03-03T00:03:46.365Z,1.11
2019-03-03T00:05:46.400Z,1.29
2019-03-03T00:07:46.555Z,1.44
2019-03-03T00:09:46.364Z,3.00
2019-03-03T00:11:46.329Z,2.10
2019-03-03T00:13:46.418Z,1.82
2019-03-03T00:15:46.603Z,1.94
2019-03-03T00:17:46.624Z,2.39
2019-03-03T00:19:46.661Z,1.79
2019-03-03T00:21:46.642Z,1.63
2019-03-03T00:23:46.606Z,1.51
2019-03-03T00:25:46.682Z,1.18
2019-03-03T00:27:46.480Z,1.67
2019-03-03T00:29:46.892Z,1.89
2019-03-03T00:31:46.919Z,2.51
2019-03-03T00:33:46.531Z,1.57
2019-03-03T00:35:46.724Z,0.90
2019-03-03T00:37:46.522Z,1.85
2019-03-03T00:39:46.749Z,0.93
2019-03-03T00:41:46.611Z,1.30
2019-03-03T00:43:46.662Z,0.85
2019-03-03T00:45:46.646Z,1.48
2019-03-03T00:47:46.564Z,0.81
2019-03-03T00:49:46.608Z,1.46
2019-03-03T00:51:46.612Z,1.12
2019-03-03T00:53:46.684Z,1.58
2019-03-03T00:55:46.938Z,2.14
2019-03-03T00:57:46.959Z,0.94
2019-03-03T00:59:46.838Z,1.22
2019-03-03T01:01:46.878Z,1.12
2019-03-03T01:03:46.592Z,1.08
2019-03-03T01:05:46.492Z,1.02
2019-03-03T01:07:46.704Z,0.40
2019-03-03T01:09:46.915Z,0.45
2019-03-03T01:11:46.731Z,1.32
2019-03-03T01:13:46.424Z,0.86
2019-03-03T01:15:46.748Z,1.34
2019-03-03T01:17:46.762Z,0.24
2019-03-03T01:19:46.674Z,0.73
2019-03-03T01:21:46.889Z,0.97
2019-03-03T01:23:46.689Z,0.83
2019-03-03T01:25:46.502Z,1.25
2019-03-03T01:27:46.514Z,1.82
2019-03-03T01:29:46.729Z,1.37
2019-03-03T01:31:46.744Z,1.44
2019-03-03T01:33:46.550Z,1.77
2019-03-03T01:35:46.712Z,1.75
2019-03-03T01:37:46.582Z,1.64
2019-03-03T01:39:46.786Z,2.36
2019-03-03T01:41:46.757Z,1.60
2019-03-03T01:43:47.033Z,1.81
2019-03-03T01:45:46.617Z,1.66
2019-03-03T01:47:46.633Z,0.77
2019-03-03T01:49:46.759Z,1.54
2019-03-03T01:51:46.687Z,1.44
2019-03-03T01:53:46.604Z,0.82
2019-03-03T01:55:46.775Z,1.38
2019-03-03T01:57:46.591Z,0.24
2019-03-03T01:59:46.761Z,0.94
2019-03-03T02:01:46.815Z,1.31
2019-03-03T02:03:46.626Z,1.04
2019-03-03T02:05:46.597Z,1.29
2019-03-03T02:07:46.582Z,1.20
2019-03-03T02:09:46.652Z,2.22
2019-03-03T02:11:46.466Z,1.05
2019-03-03T02:13:46.594Z,1.12
2019-03-03T02:15:46.588Z,1.18
2019-03-03T02:17:46.603Z,2.04
2019-03-03T02:19:46.815Z,1.71
2019-03-03T02:21:46.727Z,2.40
2019-03-03T02:23:46.671Z,1.98
2019-03-03T02:25:46.916Z,2.16
2019-03-03T02:27:46.763Z,2.19
2019-03-03T02:29:46.522Z,1.86
2019-03-03T02:31:46.568Z,1.98
2019-03-03T02:33:46.588Z,1.67
2019-03-03T02:35:46.702Z,1.56
2019-03-03T02:37:46.812Z,0.87
2019-03-03T02:39:46.623Z,0.72
2019-03-03T02:41:46.437Z,0.92
2019-03-03T02:43:46.683Z,1.15
2019-03-03T02:45:46.966Z,0.97
2019-03-03T02:47:46.568Z,1.43
2019-03-03T02:49:46.797Z,2.48
2019-03-03T02:51:46.617Z,1.81
2019-03-03T02:53:46.777Z,1.67
2019-03-03T02:55:46.643Z,1.83
2019-03-03T02:57:46.938Z,1.68
2019-03-03T02:59:46.480Z,1.16
2019-03-03T03:01:46.690Z,1.92
2019-03-03T03:03:46.732Z,0.34
2019-03-03T03:05:46.583Z,1.22
2019-03-03T03:07:46.587Z,0.90
2019-03-03T03:09:46.533Z,2.09
2019-03-03T03:11:46.706Z,1.43
2019-03-03T03:13:46.513Z,0.64
2019-03-03T03:15:46.530Z,1.01
2019-03-03T03:17:46.633Z,1.10
2019-03-03T03:19:46.739Z,1.10
2019-03-03T03:21:46.564Z,1.78
2019-03-03T03:23:46.778Z,0.82
2019-03-03T03:25:46.791Z,2.61
2019-03-03T03:27:46.804Z,2.87
2019-03-03T03:29:46.746Z,1.85
2019-03-03T03:31:47.445Z,1.58
2019-03-03T03:33:46.836Z,1.54
2019-03-03T03:35:46.641Z,1.37
2019-03-03T03:37:46.865Z,1.36
2019-03-03T03:39:46.503Z,0.56
2019-03-03T03:41:46.581Z,0.76
2019-03-03T03:43:46.792Z,1.30
2019-03-03T03:45:46.599Z,0.85
2019-03-03T03:47:46.623Z,1.62
2019-03-03T03:49:46.825Z,2.07
2019-03-03T03:51:46.808Z,2.63
2019-03-03T03:53:46.805Z,2.29
2019-03-03T03:55:47.087Z,2.49
2019-03-03T03:57:46.579Z,2.08
2019-03-03T03:59:46.885Z,1.76
2019-03-03T04:01:46.640Z,0.85
2019-03-03T04:03:46.670Z,2.62
2019-03-03T04:05:46.717Z,1.77
2019-03-03T04:07:46.724Z,2.50
2019-03-03T04:09:46.950Z,1.76
2019-03-03T04:11:46.923Z,2.11
2019-03-03T04:13:46.589Z,2.22
2019-03-03T04:15:46.764Z,1.13
2019-03-03T04:17:46.787Z,2.11
2019-03-03T04:19:46.830Z,0.85
2019-03-03T04:21:46.716Z,0.90
2019-03-03T04:23:46.516Z,1.38
2019-03-03T04:25:46.939Z,0.56
2019-03-03T04:27:46.491Z,1.98
2019-03-03T04:29:46.752Z,1.67
2019-03-03T04:31:46.775Z,1.98
2019-03-03T04:33:46.713Z,1.11
2019-03-03T04:35:46.792Z,1.04
2019-03-03T04:37:46.601Z,2.12
2019-03-03T04:39:47.021Z,1.48
2019-03-03T04:41:47.131Z,1.79
2019-03-03T04:43:46.952Z,1.87
2019-03-03T04:45:46.678Z,1.83
2019-03-03T04:47:46.547Z,2.08
2019-03-03T04:49:46.974Z,1.73
2019-03-03T04:51:46.937Z,1.78
2019-03-03T04:53:46.789Z,1.47
2019-03-03T04:55:47.006Z,0.45
2019-03-03T04:57:46.560Z,1.88
2019-03-03T04:59:46.829Z,1.40
2019-03-03T05:01:46.726Z,1.78
2019-03-03T05:03:46.860Z,0.84
2019-03-03T05:05:46.667Z,1.00
2019-03-03T05:07:47.181Z,1.35
2019-03-03T05:09:46.682Z,1.50
2019-03-03T05:11:47.470Z,1.82
2019-03-03T05:13:46.902Z,1.49
2019-03-03T05:15:46.646Z,2.17
2019-03-03T05:17:47.132Z,1.26
2019-03-03T05:19:46.838Z,2.11
2019-03-03T05:21:46.745Z,1.90
2019-03-03T05:23:46.762Z,1.91
2019-03-03T05:25:47.079Z,1.90
2019-03-03T05:27:46.585Z,1.43
2019-03-03T05:29:46.915Z,1.11
2019-03-03T05:31:46.675Z,1.49
2019-03-03T05:33:46.866Z,0.72
2019-03-03T05:35:46.613Z,1.71
2019-03-03T05:37:46.827Z,2.07
2019-03-03T05:39:47.057Z,1.16
2019-03-03T05:41:46.863Z,1.36
2019-03-03T05:43:46.870Z,0.69
2019-03-03T05:45:46.843Z,1.92
2019-03-03T05:47:46.895Z,1.74
2019-03-03T05:49:46.878Z,1.85
2019-03-03T05:51:46.727Z,0.89
2019-03-03T05:53:46.930Z,2.04
2019-03-03T05:55:46.947Z,1.37
2019-03-03T05:57:47.004Z,1.13
2019-03-03T05:59:46.738Z,1.01
2019-03-03T06:01:47.200Z,1.37
2019-03-03T06:03:46.795Z,2.51
2019-03-03T06:05:47.495Z,1.96
2019-03-03T06:07:46.711Z,1.79
2019-03-03T06:09:46.888Z,1.76
2019-03-03T06:11:47.082Z,1.71
2019-03-03T06:13:46.791Z,1.77
2019-03-03T06:15:46.862Z,1.88
2019-03-03T06:17:46.671Z,2.07
2019-03-03T06:19:46.880Z,1.86
2019-03-03T06:21:46.747Z,2.21
2019-03-03T06:23:46.808Z,1.32
2019-03-03T06:25:46.847Z,1.23
2019-03-03T06:27:46.926Z,1.39
2019-03-03T06:29:46.942Z,1.13
2019-03-03T06:31:46.881Z,2.24
2019-03-03T06:33:46.762Z,2.29
2019-03-03T06:35:46.773Z,2.21
2019-03-03T06:37:46.977Z,1.95
2019-03-03T06:39:46.797Z,2.05
2019-03-03T06:41:47.767Z,1.93
2019-03-03T06:43:47.204Z,1.03
2019-03-03T06:45:48.006Z,1.04
2019-03-03T06:47:46.905Z,1.40
2019-03-03T06:49:47.163Z,2.38
2019-03-03T06:51:46.755Z,1.69
2019-03-03T06:53:46.588Z,2.74
2019-03-03T06:55:46.825Z,2.78
2019-03-03T06:57:46.691Z,1.99
2019-03-03T06:59:47.009Z,2.33
2019-03-03T07:01:47.031Z,2.34
2019-03-03T07:03:47.034Z,2.21
2019-03-03T07:05:46.734Z,1.36
2019-03-03T07:07:47.066Z,1.43
2019-03-03T07:09:46.766Z,0.76
2019-03-03T07:11:46.623Z,1.23
2019-03-03T07:13:47.097Z,1.93
2019-03-03T07:15:46.827Z,1.66
2019-03-03T07:17:46.659Z,2.27
2019-03-03T07:19:46.992Z,1.00
2019-03-03T07:21:46.626Z,2.21
2019-03-03T07:23:46.988Z,1.83
2019-03-03T07:25:46.849Z,2.37
2019-03-03T07:27:47.278Z,2.94
2019-03-03T07:29:46.879Z,2.47
2019-03-03T07:31:46.895Z,2.31
2019-03-03T07:33:46.907Z,1.48
2019-03-03T07:35:46.847Z,1.83
2019-03-03T07:37:46.676Z,2.91
2019-03-03T07:39:46.847Z,2.07
2019-03-03T07:41:46.751Z,1.52
2019-03-03T07:43:46.962Z,2.38
2019-03-03T07:45:46.774Z,3.75
2019-03-03T07:47:46.780Z,2.33
2019-03-03T07:49:46.994Z,2.30
2019-03-03T07:51:47.009Z,2.39
2019-03-03T07:53:47.014Z,2.55
2019-03-03T07:55:46.796Z,2.28
2019-03-03T07:57:47.765Z,3.11
2019-03-03T07:59:47.121Z,3.31
2019-03-03T08:01:46.517Z,3.16
2019-03-03T08:03:47.936Z,2.78
2019-03-03T08:05:46.917Z,3.37
2019-03-03T08:07:47.010Z,4.16
2019-03-03T08:09:46.628Z,3.30
2019-03-03T08:11:46.718Z,1.85
2019-03-03T08:13:46.945Z,3.49
2019-03-03T08:15:46.741Z,2.55
2019-03-03T08:17:46.915Z,2.71
2019-03-03T08:19:46.974Z,2.00
2019-03-03T08:21:46.528Z,3.22
2019-03-03T08:23:46.533Z,2.39
2019-03-03T08:25:46.914Z,3.04
2019-03-03T08:27:46.603Z,3.16
2019-03-03T08:29:46.572Z,3.04
2019-03-03T08:31:46.832Z,3.05
2019-03-03T08:33:46.810Z,2.55
2019-03-03T08:35:46.657Z,2.32
2019-03-03T08:37:47.069Z,3.92
2019-03-03T08:39:46.778Z,2.45
2019-03-03T08:41:46.861Z,3.58
2019-03-03T08:43:46.910Z,3.89
2019-03-03T08:45:46.646Z,3.38
2019-03-03T08:47:53.200Z,3.60
2019-03-03T08:49:47.148Z,4.95
2019-03-03T08:51:46.838Z,3.75
2019-03-03T08:53:46.612Z,3.76
2019-03-03T08:55:47.284Z,2.05
2019-03-03T08:57:46.890Z,2.62
2019-03-03T08:59:46.695Z,3.26
2019-03-03T09:01:46.902Z,3.64
2019-03-03T09:03:46.654Z,3.08
2019-03-03T09:05:46.923Z,3.10
2019-03-03T09:07:47.142Z,3.75
2019-03-03T09:09:46.920Z,3.26
2019-03-03T09:11:46.760Z,3.36
2019-03-03T09:13:47.174Z,3.62
2019-03-03T09:15:47.085Z,2.63
2019-03-03T09:17:46.897Z,3.61
2019-03-03T09:19:46.919Z,3.84
2019-03-03T09:21:46.725Z,4.30
2019-03-03T09:23:46.728Z,3.73
2019-03-03T09:25:46.812Z,4.70
2019-03-03T09:27:46.878Z,5.08
2019-03-03T09:29:46.761Z,2.88
2019-03-03T09:31:46.967Z,2.46
2019-03-03T09:33:46.786Z,3.75
2019-03-03T09:35:46.745Z,3.83
2019-03-03T09:37:46.781Z,2.41
2019-03-03T09:39:46.821Z,4.71
2019-03-03T09:41:46.784Z,3.73
2019-03-03T09:43:47.156Z,2.58
2019-03-03T09:45:47.014Z,3.27
2019-03-03T09:47:46.819Z,4.31
2019-03-03T09:49:46.639Z,4.61
2019-03-03T09:51:47.102Z,4.91
2019-03-03T09:53:46.885Z,2.24
2019-03-03T09:55:46.705Z,3.65
2019-03-03T09:57:46.828Z,2.75
2019-03-03T09:59:46.820Z,3.99
2019-03-03T10:01:47.051Z,3.88
2019-03-03T10:03:46.821Z,4.02
2019-03-03T10:05:47.272Z,3.92
2019-03-03T10:07:47.087Z,4.00
2019-03-03T10:09:46.894Z,4.71
2019-03-03T10:11:47.082Z,3.89
2019-03-03T10:13:46.887Z,3.35
2019-03-03T10:15:46.827Z,2.40
2019-03-03T10:17:47.443Z,3.57
2019-03-03T10:19:46.844Z,3.05
2019-03-03T10:21:46.841Z,3.12
2019-03-03T10:23:47.044Z,2.88
2019-03-03T10:25:46.860Z,4.08
2019-03-03T10:27:47.252Z,3.84
2019-03-03T10:29:46.960Z,3.18
2019-03-03T10:31:48.030Z,2.72
2019-03-03T10:33:47.237Z,3.25
2019-03-03T10:35:47.079Z,3.25
2019-03-03T10:37:47.088Z,4.40
2019-03-03T10:39:47.276Z,3.53
2019-03-03T10:41:46.821Z,4.05
2019-03-03T10:43:47.010Z,2.82
2019-03-03T10:45:47.310Z,4.15
2019-03-03T10:47:46.961Z,3.77
2019-03-03T10:49:47.072Z,3.58
2019-03-03T10:51:47.239Z,4.03
2019-03-03T10:53:46.846Z,3.24
2019-03-03T10:55:46.833Z,3.85
2019-03-03T10:57:47.069Z,4.48
2019-03-03T10:59:54.794Z,3.66
2019-03-03T11:01:46.890Z,3.77
2019-03-03T11:03:47.318Z,3.73
2019-03-03T11:05:47.055Z,4.27
2019-03-03T11:07:47.336Z,4.22
2019-03-03T11:09:47.263Z,2.80
2019-03-03T11:11:47.389Z,2.88
2019-03-03T11:13:47.183Z,2.18
2019-03-03T11:15:47.380Z,2.86
2019-03-03T11:17:47.267Z,3.55
2019-03-03T11:19:47.097Z,3.74
2019-03-03T11:21:47.022Z,3.90
2019-03-03T11:23:47.046Z,3.30
2019-03-03T11:25:46.932Z,3.59
2019-03-03T11:27:47.145Z,3.05
2019-03-03T11:29:46.948Z,3.34
2019-03-03T11:31:47.163Z,5.48
2019-03-03T11:33:47.379Z,4.57
2019-03-03T11:35:47.406Z,4.49
2019-03-03T11:37:46.791Z,4.27
2019-03-03T11:39:47.359Z,6.22
2019-03-03T11:41:46.946Z,4.89
2019-03-03T11:43:46.805Z,6.51
2019-03-03T11:45:47.040Z,5.76
2019-03-03T11:47:47.380Z,3.68
2019-03-03T11:49:47.061Z,5.64
2019-03-03T11:51:47.087Z,5.04
2019-03-03T11:53:47.021Z,4.78
2019-03-03T11:55:47.065Z,5.74
2019-03-03T11:57:47.013Z,5.54
2019-03-03T11:59:46.812Z,6.74
2019-03-03T12:01:47.032Z,3.86
2019-03-03T12:03:47.048Z,3.47
2019-03-03T12:05:46.811Z,2.60
2019-03-03T12:07:47.020Z,5.71
2019-03-03T12:09:47.005Z,4.64
2019-03-03T12:11:47.025Z,7.23
2019-03-03T12:13:47.097Z,5.82
2019-03-03T12:15:47.115Z,6.25
2019-03-03T12:17:47.536Z,4.89
2019-03-03T12:19:47.072Z,5.16
2019-03-03T12:21:47.128Z,5.32
2019-03-03T12:23:46.765Z,6.19
2019-03-03T12:25:47.476Z,4.93
2019-03-03T12:27:46.873Z,4.12
2019-03-03T12:29:47.174Z,4.03
2019-03-03T12:31:47.409Z,5.48
2019-03-03T12:33:47.360Z,4.00
2019-03-03T12:35:47.230Z,4.30
2019-03-03T12:37:47.242Z,4.54
2019-03-03T12:39:47.257Z,4.98
2019-03-03T12:41:46.851Z,5.61
2019-03-03T12:43:47.381Z,4.73
2019-03-03T12:45:46.963Z,3.33
2019-03-03T12:47:47.375Z,5.37
2019-03-03T12:49:47.614Z,3.75
2019-03-03T12:51:47.562Z,4.83
2019-03-03T12:53:47.422Z,3.48
2019-03-03T12:55:47.658Z,3.02
2019-03-03T12:57:47.668Z,2.92
2019-03-03T12:59:46.967Z,3.30
2019-03-03T13:01:47.545Z,3.32
2019-03-03T13:03:47.002Z,2.97
2019-03-03T13:05:47.507Z,3.50
2019-03-03T13:07:47.349Z,4.22
2019-03-03T13:09:47.427Z,3.24
2019-03-03T13:11:47.131Z,3.31
2019-03-03T13:13:47.119Z,4.30
2019-03-03T13:15:47.101Z,3.74
2019-03-03T13:17:48.432Z,2.51
2019-03-03T13:19:47.176Z,2.91
2019-03-03T13:21:47.186Z,2.92
2019-03-03T13:23:47.004Z,3.27
2019-03-03T13:25:46.979Z,3.33
2019-03-03T13:27:47.048Z,3.73
2019-03-03T13:29:47.325Z,3.13
2019-03-03T13:31:47.297Z,2.96
2019-03-03T13:33:47.121Z,3.62
2019-03-03T13:35:46.921Z,3.38
2019-03-03T13:37:47.290Z,3.11
2019-03-03T13:39:47.513Z,2.93
2019-03-03T13:41:47.329Z,2.88
2019-03-03T13:43:47.419Z,4.03
2019-03-03T13:45:47.225Z,3.40
2019-03-03T13:47:47.235Z,4.01
2019-03-03T13:49:47.256Z,3.49
2019-03-03T13:51:47.274Z,3.68
2019-03-03T13:53:47.070Z,2.85
2019-03-03T13:55:47.068Z,3.83
2019-03-03T13:57:47.040Z,3.71
2019-03-03T13:59:47.289Z,5.39
2019-03-03T14:01:47.332Z,3.99
2019-03-03T14:03:47.305Z,5.17
2019-03-03T14:05:47.750Z,3.97
2019-03-03T14:07:46.895Z,3.34
2019-03-03T14:09:47.170Z,4.93
2019-03-03T14:11:47.112Z,4.29
2019-03-03T14:13:47.806Z,4.60
2019-03-03T14:15:47.612Z,2.84
2019-03-03T14:17:47.820Z,4.33
2019-03-03T14:19:47.193Z,2.95
2019-03-03T14:21:46.975Z,4.77
2019-03-03T14:23:47.255Z,3.42
2019-03-03T14:25:47.247Z,4.44
2019-03-03T14:27:47.163Z,4.32
2019-03-03T14:29:47.276Z,4.46
2019-03-03T14:31:46.994Z,4.43
2019-03-03T14:33:47.512Z,3.82
2019-03-03T14:35:47.111Z,5.32
2019-03-03T14:37:47.844Z,3.71
2019-03-03T14:39:47.148Z,4.57
2019-03-03T14:41:48.268Z,3.15
2019-03-03T14:43:47.340Z,3.43
2019-03-03T14:45:47.469Z,3.17
2019-03-03T14:47:47.095Z,3.36
2019-03-03T14:49:47.689Z,4.31
2019-03-03T14:51:47.197Z,5.46
2019-03-03T14:53:47.227Z,4.13
2019-03-03T14:55:47.430Z,5.16
2019-03-03T14:57:47.154Z,5.35
2019-03-03T14:59:47.349Z,4.18
2019-03-03T15:01:47.691Z,4.78
2019-03-03T15:03:47.587Z,5.32
2019-03-03T15:05:47.794Z,3.89
2019-03-03T15:07:47.602Z,4.07
2019-03-03T15:09:47.623Z,4.36
2019-03-03T15:11:47.222Z,4.22
2019-03-03T15:13:47.350Z,4.78
2019-03-03T15:15:47.449Z,5.41
2019-03-03T15:17:47.175Z,4.87
2019-03-03T15:19:47.212Z,4.26
2019-03-03T15:21:47.074Z,4.41
2019-03-03T15:23:47.237Z,3.93
2019-03-03T15:25:47.404Z,4.18
2019-03-03T15:27:47.519Z,4.31
2019-03-03T15:29:47.339Z,4.03
2019-03-03T15:31:47.125Z,4.83
2019-03-03T15:33:47.755Z,5.68
2019-03-03T15:35:47.359Z,4.72
2019-03-03T15:37:47.720Z,4.91
2019-03-03T15:39:47.795Z,5.02
2019-03-03T15:41:47.597Z,4.00
2019-03-03T15:43:48.707Z,2.63
2019-03-03T15:45:47.820Z,4.65
2019-03-03T15:47:47.833Z,4.12
2019-03-03T15:49:47.646Z,4.52
2019-03-03T15:51:47.856Z,4.67
2019-03-03T15:53:47.671Z,5.44
2019-03-03T15:55:47.725Z,3.91
2019-03-03T15:57:47.604Z,4.53
2019-03-03T15:59:47.472Z,5.10
2019-03-03T16:01:47.717Z,4.91
2019-03-03T16:03:47.596Z,4.03
2019-03-03T16:05:47.841Z,3.99
2019-03-03T16:07:47.861Z,3.29
2019-03-03T16:09:47.861Z,3.05
2019-03-03T16:11:47.677Z,2.30
2019-03-03T16:13:47.608Z,2.59
2019-03-03T16:15:47.487Z,3.33
2019-03-03T16:17:48.881Z,2.32
2019-03-03T16:19:47.650Z,2.91
2019-03-03T16:21:47.730Z,2.13
2019-03-03T16:23:47.530Z,3.38
2019-03-03T16:25:47.534Z,3.99
2019-03-03T16:27:47.554Z,3.09
2019-03-03T16:29:47.430Z,2.82
2019-03-03T16:31:47.881Z,2.89
2019-03-03T16:33:47.703Z,2.55
2019-03-03T16:35:47.486Z,2.55
2019-03-03T16:37:47.646Z,2.29
2019-03-03T16:39:47.735Z,3.41
2019-03-03T16:41:47.642Z,2.54
2019-03-03T16:43:47.556Z,3.63
2019-03-03T16:45:47.666Z,2.28
2019-03-03T16:47:47.476Z,3.17
2019-03-03T16:49:47.795Z,2.14
2019-03-03T16:51:47.691Z,3.23
2019-03-03T16:53:47.715Z,2.85
2019-03-03T16:55:47.928Z,3.07
2019-03-03T16:57:47.506Z,3.58
2019-03-03T16:59:48.159Z,3.50
2019-03-03T17:01:47.763Z,2.65
2019-03-03T17:03:47.767Z,2.27
2019-03-03T17:05:47.693Z,3.59
2019-03-03T17:07:47.789Z,3.60
2019-03-03T17:09:47.726Z,3.29
2019-03-03T17:11:47.706Z,2.95
2019-03-03T17:13:47.825Z,2.94
2019-03-03T17:15:47.839Z,2.95
2019-03-03T17:17:47.646Z,2.31
2019-03-03T17:19:47.871Z,1.31
2019-03-03T17:21:47.883Z,1.73
2019-03-03T17:23:47.888Z,2.78
2019-03-03T17:25:47.834Z,2.49
2019-03-03T17:27:47.716Z,1.85
2019-03-03T17:29:47.925Z,2.51
2019-03-03T17:31:47.936Z,2.06
2019-03-03T17:33:47.480Z,1.86
2019-03-03T17:35:47.753Z,2.46
2019-03-03T17:37:47.691Z,2.26
2019-03-03T17:39:47.653Z,1.26
2019-03-03T17:41:47.707Z,1.22
2019-03-03T17:43:47.802Z,1.84
2019-03-03T17:45:47.715Z,2.12
2019-03-03T17:47:47.726Z,2.06
2019-03-03T17:49:47.630Z,2.29
2019-03-03T17:51:47.553Z,1.24
2019-03-03T17:53:47.618Z,1.05
2019-03-03T17:55:47.780Z,2.27
2019-03-03T17:57:47.677Z,2.02
2019-03-03T17:59:47.815Z,2.39
2019-03-03T18:01:47.696Z,1.63
2019-03-03T18:03:47.620Z,1.17
2019-03-03T18:05:47.602Z,1.01
2019-03-03T18:07:48.009Z,1.65
2019-03-03T18:09:47.858Z,2.73
2019-03-03T18:11:48.167Z,3.01
2019-03-03T18:13:47.983Z,2.96
2019-03-03T18:15:47.561Z,3.12
2019-03-03T18:17:47.790Z,1.34
2019-03-03T18:19:47.806Z,1.61
2019-03-03T18:21:47.819Z,2.21
2019-03-03T18:23:49.775Z,2.18
2019-03-03T18:25:47.845Z,1.89
2019-03-03T18:27:47.959Z,2.39
2019-03-03T18:29:47.958Z,2.13
2019-03-03T18:31:47.658Z,2.00
2019-03-03T18:33:47.987Z,3.39
2019-03-03T18:35:47.803Z,1.75
2019-03-03T18:37:49.028Z,1.67
2019-03-03T18:39:47.725Z,2.24
2019-03-03T18:41:49.019Z,2.27
2019-03-03T18:43:47.742Z,2.48
2019-03-03T18:45:47.746Z,2.48
2019-03-03T18:47:47.967Z,0.94
2019-03-03T18:49:47.847Z,2.26
2019-03-03T18:51:47.985Z,1.50
2019-03-03T18:53:47.806Z,1.68
2019-03-03T18:55:49.026Z,1.15
2019-03-03T18:57:47.823Z,1.11
2019-03-03T18:59:47.848Z,0.84
2019-03-03T19:01:47.846Z,0.42
2019-03-03T19:03:47.658Z,0.48
2019-03-03T19:05:55.432Z,0.52
2019-03-03T19:07:47.657Z,0.43
2019-03-03T19:09:47.655Z,0.81
2019-03-03T19:11:47.651Z,1.04
2019-03-03T19:13:47.920Z,0.61
2019-03-03T19:15:47.721Z,1.23
2019-03-03T19:17:47.865Z,0.76
2019-03-03T19:19:47.949Z,0.84
2019-03-03T19:21:47.854Z,0.56
2019-03-03T19:23:47.816Z,1.28
2019-03-03T19:25:47.679Z,0.35
2019-03-03T19:27:48.129Z,0.61
2019-03-03T19:29:48.010Z,0.26
2019-03-03T19:31:47.834Z,0.90
2019-03-03T19:33:48.029Z,1.10
2019-03-03T19:35:48.184Z,0.39
2019-03-03T19:37:47.796Z,0.76
2019-03-03T19:39:47.993Z,1.17
2019-03-03T19:41:49.020Z,0.46
2019-03-03T19:43:47.881Z,0.85
2019-03-03T19:45:47.767Z,0.66
2019-03-03T19:47:47.920Z,1.36
2019-03-03T19:49:47.696Z,1.27
2019-03-03T19:51:47.935Z,0.87
2019-03-03T19:53:47.978Z,1.01
2019-03-03T19:55:48.057Z,1.17
2019-03-03T19:57:47.865Z,0.84
2019-03-03T19:59:48.081Z,1.21
2019-03-03T20:01:47.815Z,1.51
2019-03-03T20:03:48.107Z,0.71
2019-03-03T20:05:47.904Z,0.67
2019-03-03T20:07:48.083Z,1.28
2019-03-03T20:09:47.822Z,1.43
2019-03-03T20:11:48.200Z,0.45
2019-03-03T20:13:47.856Z,0.93
2019-03-03T20:15:48.069Z,0.96
2019-03-03T20:17:47.845Z,1.14
2019-03-03T20:19:47.844Z,1.32
2019-03-03T20:21:47.410Z,0.40
2019-03-03T20:23:47.916Z,2.18
2019-03-03T20:25:47.619Z,1.15
2019-03-03T20:27:47.436Z,0.82
2019-03-03T20:29:47.999Z,1.18
2019-03-03T20:31:47.962Z,0.90
2019-03-03T20:33:47.320Z,1.21
2019-03-03T20:35:47.471Z,0.94
2019-03-03T20:37:47.698Z,1.42
2019-03-03T20:39:47.396Z,2.91
2019-03-03T20:41:47.506Z,1.93
2019-03-03T20:43:47.271Z,2.39
2019-03-03T20:45:47.476Z,2.05
2019-03-03T20:47:47.551Z,1.35
2019-03-03T20:49:47.727Z,1.69
2019-03-03T20:51:47.368Z,2.01
2019-03-03T20:53:47.582Z,1.17
2019-03-03T20:55:47.493Z,1.81
2019-03-03T20:57:47.398Z,1.05
2019-03-03T20:59:48.128Z,2.25
2019-03-03T21:01:47.320Z,1.81
2019-03-03T21:03:47.455Z,1.47
2019-03-03T21:05:47.953Z,0.42
2019-03-03T21:07:51.507Z,0.87
2019-03-03T21:09:47.719Z,1.25
2019-03-03T21:11:47.790Z,1.00
2019-03-03T21:13:47.591Z,0.74
2019-03-03T21:15:47.604Z,2.16
2019-03-03T21:17:47.622Z,2.34
2019-03-03T21:19:47.431Z,3.50
2019-03-03T21:21:47.365Z,2.52
2019-03-03T21:23:47.582Z,1.80
2019-03-03T21:25:47.365Z,1.52
2019-03-03T21:27:47.644Z,0.89
2019-03-03T21:29:47.589Z,0.55
2019-03-03T21:31:47.593Z,2.22
2019-03-03T21:33:47.599Z,2.03
2019-03-03T21:35:47.816Z,2.42
2019-03-03T21:37:47.833Z,2.17
2019-03-03T21:39:47.435Z,2.24
2019-03-03T21:41:47.754Z,1.01
2019-03-03T21:43:47.976Z,0.85
2019-03-03T21:45:47.774Z,2.36
2019-03-03T21:47:47.379Z,1.40
2019-03-03T21:49:47.439Z,1.00
2019-03-03T21:51:47.715Z,0.83
2019-03-03T21:53:47.578Z,0.69
2019-03-03T21:55:47.530Z,0.11
2019-03-03T21:57:47.602Z,0.34
2019-03-03T21:59:47.968Z,1.64
2019-03-03T22:01:47.570Z,1.02
2019-03-03T22:03:47.534Z,1.99
2019-03-03T22:05:48.197Z,0.86
2019-03-03T22:07:47.580Z,0.43
2019-03-03T22:09:47.758Z,0.41
2019-03-03T22:11:48.242Z,0.48
2019-03-03T22:13:47.633Z,0.99
2019-03-03T22:15:47.948Z,0.21
2019-03-03T22:17:47.703Z,1.39
2019-03-03T22:19:47.709Z,0.52
2019-03-03T22:21:47.790Z,1.89
2019-03-03T22:23:47.589Z,1.02
2019-03-03T22:25:47.816Z,0.44
2019-03-03T22:27:47.611Z,1.25
2019-03-03T22:29:47.627Z,0.05
2019-03-03T22:31:47.600Z,0.34
2019-03-03T22:33:47.600Z,0.53
2019-03-03T22:35:47.662Z,0.87
2019-03-03T22:37:47.648Z,1.65
2019-03-03T22:39:48.295Z,1.47
2019-03-03T22:41:47.873Z,0.62
2019-03-03T22:43:47.710Z,1.29
2019-03-03T22:45:47.712Z,0.90
2019-03-03T22:47:47.844Z,0.47
2019-03-03T22:49:47.843Z,1.62
2019-03-03T22:51:47.654Z,1.45
2019-03-03T22:53:47.451Z,1.07
2019-03-03T22:55:47.574Z,1.60
2019-03-03T22:57:47.797Z,0.36
2019-03-03T22:59:47.498Z,1.74
2019-03-03T23:01:47.761Z,0.46
2019-03-03T23:03:47.517Z,0.83
2019-03-03T23:05:47.481Z,1.39
2019-03-03T23:07:47.752Z,1.97
2019-03-03T23:09:47.553Z,1.72
2019-03-03T23:11:47.736Z,0.94
2019-03-03T23:13:47.678Z,1.38
2019-03-03T23:15:48.000Z,2.21
2019-03-03T23:17:47.566Z,1.11
2019-03-03T23:19:47.612Z,1.51
2019-03-03T23:21:48.247Z,1.81
2019-03-03T23:23:47.680Z,1.37
2019-03-03T23:25:47.852Z,1.26
2019-03-03T23:27:47.653Z,1.94
2019-03-03T23:29:47.872Z,1.47
2019-03-03T23:31:47.477Z,2.96
2019-03-03T23:33:47.871Z,3.44
2019-03-03T23:35:47.702Z,3.72
2019-03-03T23:37:47.715Z,3.56
2019-03-03T23:39:47.520Z,4.27
2019-03-03T23:41:47.740Z,3.40
2019-03-03T23:43:47.751Z,3.01
2019-03-03T23:45:47.766Z,2.53
2019-03-03T23:47:47.629Z,3.17
2019-03-03T23:49:47.779Z,2.77
2019-03-03T23:51:48.110Z,2.20
2019-03-03T23:53:48.117Z,3.07
2019-03-03T23:55:47.712Z,1.68
2019-03-03T23:57:47.623Z,2.48
2019-03-03T23:59:47.721Z,3.20
